Alakanuk, AK

9:15 AM AKST on February 08, 2016 (GMT -0900)
St. Marys | | Change Station
CLOSE
Current Station
Airport
Location: St. Marys,
Elevation: 312 ft
Nearby Weather Stations

Elev 312 ft 62.06 °N, 163.30 °W | Updated 19 minutes ago

Clear
Clear
16 °F
Feels Like -2 °F
N
23
Wind Variable Wind from East
Gusts 31 mph

Today
High -- | Low -- °F
--% Chance of Precip.
Yesterday
High -- | Low -- °F
Precip. -- in
Pressure 29.50 in
Visibility 10.0 miles
Clouds Clear
Windchill -2 °F
Dew Point 9 °F
Humidity 73%
Rainfall 0.00 in
Snow Depth Not available.
10:08 AM 6:17 PM
New Moon, 0% visible
METAR PASM 081756Z 08020G27KT 10SM CLR M09/M13 A2950 RMK AO1 11080 21090 57014
Pressure 29.50 in
Visibility 10.0 miles
Clouds Clear
Windchill -2 °F
Dew Point 9 °F
Humidity 73%
Rainfall 0.00 in
Snow Depth Not available.
10:08 AM 6:17 PM
New Moon, 0% visible
METAR PASM 081756Z 08020G27KT 10SM CLR M09/M13 A2950 RMK AO1 11080 21090 57014

10-Day Weather Forecast

Almanac

Astronomy

Feb. 08, 2016 Rise Set
Actual Time
Civil Twilight
Nautical Twilight
Astronomical Twilight
Moon
Length of Visible Light
Length of Day
Tomorrow will be .
, % of the Moon is Illuminated

Today's Extremes

State Highs State Lows

Community

WunderPhotos

Upload Photos

1,891,475 photos uploaded!

WunderBlog® & News

Nearby

Air Quality

  Air Quality AQ Index Pollutant
Not available.

Snow Depth

Station Depth Elevation

Earthquake Activity

City Distance Mag. Time & Date
Minimum magnitude displayed is 2.5.

Coastal Water Temperatures

Place Temperature

Stations

Nearby Weather Stations

Station Location Temp. Windchill Dew Point Humidity Wind Precip. Elev Updated Type
                   

Watches & Warnings

There are currently no watches in effect.